createdAt,value
2023-05-06T00:00:41.725Z,85.6333
2023-05-06T00:01:44.475Z,86.3382
2023-05-06T00:02:47.610Z,87.3010
2023-05-06T00:03:50.250Z,87.6932
2023-05-06T00:04:53.088Z,87.5153
2023-05-06T00:05:55.611Z,86.9157
2023-05-06T00:06:58.174Z,86.2500
2023-05-06T00:08:00.756Z,83.1013
2023-05-06T00:09:03.369Z,81.0993
2023-05-06T00:10:05.926Z,86.0459
2023-05-06T00:12:11.971Z,87.3987
2023-05-06T00:12:11.971Z,87.8157
2023-05-06T00:13:14.606Z,88.0191
2023-05-06T00:14:17.207Z,88.0453
2023-05-06T00:15:19.798Z,87.7609
2023-05-06T00:16:22.365Z,87.9738
2023-05-06T00:17:24.933Z,86.8225
2023-05-06T00:18:27.474Z,87.0671
2023-05-06T00:19:30.080Z,87.3655
2023-05-06T00:20:36.468Z,87.1961
2023-05-06T00:21:39.035Z,87.0559
2023-05-06T00:22:41.909Z,87.1628
2023-05-06T00:23:44.464Z,87.3296
2023-05-06T00:24:47.020Z,86.9060
2023-05-06T00:25:49.555Z,86.8951
2023-05-06T00:26:52.102Z,86.8009
2023-05-06T00:27:54.472Z,87.0638
2023-05-06T00:28:57.021Z,86.7895
2023-05-06T00:29:59.575Z,86.2627
2023-05-06T00:31:02.121Z,85.5316
2023-05-06T00:32:04.969Z,85.1504
2023-05-06T00:33:07.572Z,84.9318
2023-05-06T00:34:10.149Z,85.4469
2023-05-06T00:35:36.123Z,86.7325
2023-05-06T00:36:31.358Z,86.9334
2023-05-06T00:37:34.047Z,86.8359
2023-05-06T00:39:40.245Z,87.0345
2023-05-06T00:39:40.245Z,87.0216
2023-05-06T00:40:42.805Z,87.2257
2023-05-06T00:41:45.343Z,87.3983
2023-05-06T00:42:47.906Z,87.3572
2023-05-06T00:43:50.502Z,87.4127
2023-05-06T00:44:53.251Z,87.0042
2023-05-06T00:45:55.835Z,86.2910
2023-05-06T00:46:58.356Z,86.1947
2023-05-06T00:48:00.909Z,86.4305
2023-05-06T00:49:03.200Z,86.3401
2023-05-06T00:50:05.794Z,86.3625
2023-05-06T00:51:08.378Z,86.6359
2023-05-06T00:52:10.952Z,86.6658
2023-05-06T00:53:18.787Z,86.5521
2023-05-06T00:54:21.296Z,86.9099
2023-05-06T00:55:23.839Z,86.5459
2023-05-06T00:56:26.404Z,86.5123
2023-05-06T00:57:28.945Z,86.6977
2023-05-06T00:58:31.512Z,86.8262
2023-05-06T01:00:35.967Z,86.5793
2023-05-06T01:00:35.967Z,85.7237
2023-05-06T01:01:38.600Z,85.8581
2023-05-06T01:02:47.485Z,85.6276
2023-05-06T01:03:42.286Z,85.7536
2023-05-06T01:04:44.948Z,85.8788
2023-05-06T01:05:47.504Z,85.9998
2023-05-06T01:06:50.072Z,86.4866
2023-05-06T01:07:52.636Z,86.8731
2023-05-06T01:08:55.234Z,87.2102
2023-05-06T01:09:58.328Z,87.6890
2023-05-06T01:11:00.578Z,87.7504
2023-05-06T01:12:03.162Z,88.0313
2023-05-06T01:13:05.785Z,88.2568
2023-05-06T01:15:11.999Z,88.2338
2023-05-06T01:15:11.999Z,88.2943
2023-05-06T01:16:14.640Z,88.1071
2023-05-06T01:17:17.377Z,88.0700
2023-05-06T01:18:19.942Z,87.8444
2023-05-06T01:19:22.503Z,87.7371
2023-05-06T01:20:25.042Z,87.3620
2023-05-06T01:21:27.607Z,87.4171
2023-05-06T01:22:29.902Z,87.1436
2023-05-06T01:23:32.479Z,87.1400
2023-05-06T01:24:35.067Z,87.0966
2023-05-06T01:25:37.638Z,86.9843
2023-05-06T01:26:40.215Z,86.9795
2023-05-06T01:27:42.492Z,87.0311
2023-05-06T01:28:45.073Z,87.0686
2023-05-06T01:29:47.688Z,87.2388
2023-05-06T01:30:50.277Z,87.2719
2023-05-06T01:31:52.828Z,87.5521
2023-05-06T01:32:55.161Z,87.4698
2023-05-06T01:33:57.703Z,87.0887
2023-05-06T01:35:00.234Z,87.8549
2023-05-06T01:36:02.788Z,87.8663
2023-05-06T01:37:05.336Z,88.1262
2023-05-06T01:38:07.937Z,87.9059
2023-05-06T01:39:10.466Z,88.0191
2023-05-06T01:40:13.049Z,87.8121
2023-05-06T01:41:15.627Z,87.7536
2023-05-06T01:42:18.189Z,87.6064
2023-05-06T01:43:20.706Z,87.8026
2023-05-06T01:44:23.277Z,87.8395
2023-05-06T01:45:26.458Z,87.5620
2023-05-06T01:46:29.019Z,87.6626
2023-05-06T01:47:31.594Z,87.9958
2023-05-06T01:48:34.367Z,88.0521
2023-05-06T01:49:36.920Z,88.0104
2023-05-06T01:50:39.706Z,88.2722
2023-05-06T01:51:42.278Z,88.3611
2023-05-06T01:52:44.823Z,88.2641
2023-05-06T01:53:47.594Z,88.4272
2023-05-06T01:54:50.174Z,88.6504
2023-05-06T01:56:54.567Z,88.7907
2023-05-06T01:56:54.567Z,88.9419
2023-05-06T01:57:57.075Z,88.7775
2023-05-06T01:59:00.058Z,88.8150
2023-05-06T02:00:02.714Z,88.6312
2023-05-06T02:01:05.474Z,88.7263
2023-05-06T02:02:08.104Z,88.8991
2023-05-06T02:03:10.709Z,88.8717
2023-05-06T02:04:17.126Z,88.7718
2023-05-06T02:06:27.177Z,88.7564
2023-05-06T02:06:27.177Z,88.8674
2023-05-06T02:07:29.709Z,88.5966
2023-05-06T02:08:32.321Z,88.5389
2023-05-06T02:09:34.879Z,88.4109
2023-05-06T02:10:37.224Z,83.2081
2023-05-06T02:11:39.817Z,81.8569
2023-05-06T02:12:42.418Z,84.5253
2023-05-06T02:13:44.921Z,86.1743
2023-05-06T02:14:47.738Z,87.1584
2023-05-06T02:15:50.338Z,87.7414
2023-05-06T02:16:52.893Z,87.9962
2023-05-06T02:17:55.491Z,88.4443
2023-05-06T02:18:57.799Z,88.5144
2023-05-06T02:20:01.163Z,88.3020
2023-05-06T02:21:03.724Z,88.2600
2023-05-06T02:22:06.289Z,88.2800
2023-05-06T02:23:08.849Z,88.4776
2023-05-06T02:24:12.129Z,88.9478
2023-05-06T02:25:14.706Z,89.0032
2023-05-06T02:26:17.296Z,88.6315
2023-05-06T02:27:19.878Z,88.8268
2023-05-06T02:28:22.558Z,88.9157
2023-05-06T02:29:25.275Z,88.8130
2023-05-06T02:30:27.817Z,88.3023
2023-05-06T02:31:30.720Z,87.8847
2023-05-06T02:32:33.270Z,88.6191
2023-05-06T02:33:35.839Z,89.2790
2023-05-06T02:34:38.389Z,89.3067
2023-05-06T02:35:40.988Z,89.2459
2023-05-06T02:36:43.597Z,89.1469
2023-05-06T02:38:47.900Z,89.5308
2023-05-06T02:38:47.900Z,89.3350
2023-05-06T02:39:50.473Z,89.4041
2023-05-06T02:40:53.033Z,89.4631
2023-05-06T02:41:55.380Z,89.6422
2023-05-06T02:42:57.787Z,89.4707
2023-05-06T02:43:58.435Z,89.6272
2023-05-06T02:45:00.991Z,89.2834
2023-05-06T02:46:03.587Z,89.1595
2023-05-06T02:47:06.126Z,88.9936
2023-05-06T02:48:08.695Z,89.3008
2023-05-06T02:49:11.246Z,89.1348
2023-05-06T02:50:13.849Z,89.8393
2023-05-06T02:51:16.437Z,89.9614
2023-05-06T02:52:19.051Z,89.8947
2023-05-06T02:53:21.578Z,89.9421
2023-05-06T02:54:27.581Z,90.1999
2023-05-06T02:55:30.141Z,90.2144
2023-05-06T02:56:32.711Z,90.3005
2023-05-06T02:57:35.308Z,90.2197
2023-05-06T02:58:38.113Z,90.3418
2023-05-06T02:59:40.736Z,90.5112
2023-05-06T03:00:43.309Z,90.4708
2023-05-06T03:01:45.627Z,90.5160
2023-05-06T03:02:48.305Z,90.5700
2023-05-06T03:03:50.961Z,90.6311
2023-05-06T03:04:53.542Z,90.5329
2023-05-06T03:06:59.697Z,90.5755
2023-05-06T03:06:59.697Z,90.5369
2023-05-06T03:08:02.303Z,90.5504
2023-05-06T03:09:05.371Z,90.6675
2023-05-06T03:10:08.014Z,90.7143
2023-05-06T03:11:10.649Z,90.9062
2023-05-06T03:12:10.812Z,90.8263
2023-05-06T03:13:13.471Z,90.7634
2023-05-06T03:14:16.071Z,90.7211
2023-05-06T03:15:18.462Z,90.6300
2023-05-06T03:16:28.120Z,90.8037
2023-05-06T03:17:30.497Z,90.7957
2023-05-06T03:18:33.063Z,90.3799
2023-05-06T03:19:35.672Z,90.2108
2023-05-06T03:20:38.264Z,90.4531
2023-05-06T03:21:40.893Z,90.4497
2023-05-06T03:22:43.430Z,90.4698
2023-05-06T03:23:46.047Z,90.5156
2023-05-06T03:24:48.666Z,90.8123
2023-05-06T03:25:51.265Z,90.9474
2023-05-06T03:26:54.395Z,90.8353
2023-05-06T03:27:57.046Z,90.6889
2023-05-06T03:28:59.900Z,90.6543
2023-05-06T03:30:02.473Z,90.8530
2023-05-06T03:32:08.732Z,90.6918
2023-05-06T03:32:08.732Z,90.6359
2023-05-06T03:33:11.312Z,90.6229
2023-05-06T03:34:13.883Z,90.7011
2023-05-06T03:35:16.467Z,91.0719
2023-05-06T03:36:19.292Z,91.1073
2023-05-06T03:37:21.908Z,91.3664
2023-05-06T03:38:24.469Z,91.5573
2023-05-06T03:39:27.062Z,91.4918
2023-05-06T03:40:29.626Z,91.7206
2023-05-06T03:41:32.223Z,91.8913
2023-05-06T03:42:35.047Z,91.9587
2023-05-06T03:43:37.674Z,91.9904
2023-05-06T03:44:40.504Z,92.0726
2023-05-06T03:45:43.166Z,92.1842
2023-05-06T03:46:45.496Z,92.0819
2023-05-06T03:47:48.381Z,91.9555
2023-05-06T03:48:51.273Z,91.6785
2023-05-06T03:49:53.852Z,91.6883
2023-05-06T03:50:56.760Z,91.5438
2023-05-06T03:51:59.332Z,91.4271
2023-05-06T03:53:01.924Z,91.5713
2023-05-06T03:54:04.846Z,91.4980
2023-05-06T03:55:07.566Z,91.0384
2023-05-06T03:56:10.573Z,91.2180
2023-05-06T03:57:13.158Z,91.4251
2023-05-06T03:58:15.775Z,91.6447
2023-05-06T03:59:18.708Z,91.6546
2023-05-06T04:00:21.039Z,91.7059
2023-05-06T04:01:23.667Z,91.8935
2023-05-06T04:03:29.946Z,91.9518
2023-05-06T04:03:29.946Z,92.0918
2023-05-06T04:04:30.670Z,92.2091
2023-05-06T04:05:33.294Z,92.1181
2023-05-06T04:06:35.891Z,92.2709
2023-05-06T04:07:38.209Z,92.4091
2023-05-06T04:08:40.868Z,92.4172
2023-05-06T04:09:43.442Z,92.4178
2023-05-06T04:10:46.037Z,92.3157
2023-05-06T04:11:48.619Z,92.0974
2023-05-06T04:12:51.225Z,92.1544
2023-05-06T04:13:53.849Z,92.1388
2023-05-06T04:14:56.437Z,91.6630
2023-05-06T04:15:59.057Z,91.6720
2023-05-06T04:17:01.636Z,91.7615
2023-05-06T04:18:03.980Z,91.9227
2023-05-06T04:19:06.783Z,92.1985
2023-05-06T04:20:09.312Z,92.1078
2023-05-06T04:21:35.473Z,92.1825
2023-05-06T04:22:30.741Z,91.9768
2023-05-06T04:23:33.336Z,91.9900
2023-05-06T04:24:39.581Z,92.0571
2023-05-06T04:25:42.007Z,90.8163
2023-05-06T04:26:44.587Z,88.7213
2023-05-06T04:27:46.905Z,87.0937
2023-05-06T04:28:49.491Z,89.7767
2023-05-06T04:29:52.090Z,90.4605
2023-05-06T04:30:54.678Z,90.3581
2023-05-06T04:31:57.273Z,88.6464
2023-05-06T04:33:00.222Z,89.5379
2023-05-06T04:34:02.787Z,90.2915
2023-05-06T04:35:05.393Z,90.9232
2023-05-06T04:36:08.219Z,91.1200
2023-05-06T04:37:10.862Z,91.6118
2023-05-06T04:38:13.477Z,91.1084
2023-05-06T04:39:16.096Z,91.4987
2023-05-06T04:40:18.666Z,91.7819
2023-05-06T04:41:21.482Z,91.5498
2023-05-06T04:42:24.107Z,91.5789
2023-05-06T04:43:26.716Z,91.7393
2023-05-06T04:44:29.325Z,91.7306
2023-05-06T04:45:31.939Z,91.4327
2023-05-06T04:47:34.845Z,90.9095
2023-05-06T04:47:34.845Z,91.7037
2023-05-06T04:48:45.170Z,90.3723
2023-05-06T04:49:47.792Z,88.8855
2023-05-06T04:50:50.622Z,88.9160
2023-05-06T04:51:53.185Z,89.0768
2023-05-06T04:52:55.804Z,88.9706
2023-05-06T04:53:58.386Z,89.3247
2023-05-06T04:55:01.013Z,89.9595
2023-05-06T04:56:03.638Z,89.9948
2023-05-06T04:57:06.469Z,89.9493
2023-05-06T04:58:09.091Z,90.1351
2023-05-06T04:59:11.712Z,90.4419
2023-05-06T05:00:14.296Z,90.4262
2023-05-06T05:01:16.942Z,89.9621
2023-05-06T05:02:19.294Z,90.0585
2023-05-06T05:03:21.958Z,89.8969
2023-05-06T05:04:24.700Z,90.3750
2023-05-06T05:05:27.311Z,90.7071
2023-05-06T05:06:29.947Z,90.8614
2023-05-06T05:07:32.570Z,90.9447
2023-05-06T05:08:35.185Z,90.9306
2023-05-06T05:09:37.834Z,90.9216
2023-05-06T05:10:40.462Z,90.6750
2023-05-06T05:11:42.951Z,90.4343
2023-05-06T05:12:45.585Z,89.9356
2023-05-06T05:13:48.120Z,89.4489
2023-05-06T05:14:50.738Z,89.0748
2023-05-06T05:15:53.327Z,89.2452
2023-05-06T05:16:56.101Z,89.1469
2023-05-06T05:17:58.481Z,89.1641
2023-05-06T05:19:03.330Z,88.9681
2023-05-06T05:20:02.818Z,88.8576
2023-05-06T05:21:05.444Z,88.0617
2023-05-06T05:22:08.067Z,87.7420
2023-05-06T05:23:10.392Z,86.8716
2023-05-06T05:24:13.472Z,86.8061
2023-05-06T05:25:16.067Z,86.3945
2023-05-06T05:26:18.685Z,85.5651
2023-05-06T05:27:21.289Z,85.3235
2023-05-06T05:28:23.922Z,86.3551
2023-05-06T05:29:26.593Z,85.7885
2023-05-06T05:30:29.234Z,85.3749
2023-05-06T05:31:31.869Z,84.5911
2023-05-06T05:32:34.473Z,84.3420
2023-05-06T05:33:37.156Z,84.1940
2023-05-06T05:34:39.797Z,84.4994
2023-05-06T05:35:42.364Z,84.5752
2023-05-06T05:36:44.976Z,84.5781
2023-05-06T05:37:47.588Z,83.6434
2023-05-06T05:38:50.212Z,84.1181
2023-05-06T05:39:52.628Z,85.8390
2023-05-06T05:40:55.231Z,86.3633
2023-05-06T05:41:57.885Z,86.2520
2023-05-06T05:43:00.484Z,84.5999
2023-05-06T05:44:03.101Z,85.6044
2023-05-06T05:45:12.772Z,86.7698
2023-05-06T05:46:08.097Z,86.3255
2023-05-06T05:47:10.663Z,86.7140
2023-05-06T05:48:13.269Z,86.1358
2023-05-06T05:49:15.916Z,85.1331
2023-05-06T05:50:18.575Z,86.2689
2023-05-06T05:51:48.937Z,86.8831
2023-05-06T05:52:44.247Z,85.1087
2023-05-06T05:53:46.948Z,85.0579
2023-05-06T05:54:49.554Z,85.3574
2023-05-06T05:55:52.225Z,85.4694
2023-05-06T05:56:54.595Z,85.0548
2023-05-06T05:57:57.166Z,85.2548
2023-05-06T05:58:59.882Z,84.7915
2023-05-06T06:00:02.535Z,85.2811
2023-05-06T06:01:06.456Z,84.8546
2023-05-06T06:02:09.119Z,85.6876
2023-05-06T06:03:11.826Z,85.2519
2023-05-06T06:04:14.491Z,84.4791
2023-05-06T06:05:17.160Z,85.7662
2023-05-06T06:06:19.862Z,86.1579
2023-05-06T06:07:22.486Z,85.9973
2023-05-06T06:08:25.123Z,84.2101
2023-05-06T06:09:28.100Z,83.8515
2023-05-06T06:10:30.741Z,83.8599
2023-05-06T06:11:33.360Z,82.8720
2023-05-06T06:12:36.024Z,81.1739
2023-05-06T06:13:38.803Z,80.9619
2023-05-06T06:14:41.437Z,81.6202
2023-05-06T06:16:44.844Z,81.6635
2023-05-06T06:16:44.844Z,79.6889
2023-05-06T06:17:55.061Z,82.5224
2023-05-06T06:18:57.734Z,81.9642
2023-05-06T06:20:00.357Z,82.6230
2023-05-06T06:21:03.023Z,83.1235
2023-05-06T06:23:09.274Z,84.2042
2023-05-06T06:23:09.274Z,83.0297
2023-05-06T06:24:11.897Z,83.2760
2023-05-06T06:25:14.497Z,83.9768
2023-05-06T06:26:17.070Z,83.0941
2023-05-06T06:27:19.721Z,83.0466
2023-05-06T06:28:22.378Z,82.9073
2023-05-06T06:29:25.036Z,83.2332
2023-05-06T06:30:27.619Z,82.5334
2023-05-06T06:31:30.222Z,82.1179
2023-05-06T06:32:32.856Z,81.6002
2023-05-06T06:33:35.449Z,83.2344
2023-05-06T06:34:38.079Z,84.2733
2023-05-06T06:35:40.728Z,84.7817
2023-05-06T06:36:43.354Z,85.4645
2023-05-06T06:37:45.947Z,85.8881
2023-05-06T06:38:48.791Z,85.2981
2023-05-06T06:39:51.479Z,83.5238
2023-05-06T06:40:54.141Z,83.3441
2023-05-06T06:41:56.804Z,83.6883
2023-05-06T06:42:59.387Z,82.9165
2023-05-06T06:44:02.015Z,82.8325
2023-05-06T06:45:04.890Z,83.5452
2023-05-06T06:46:07.536Z,82.8566
2023-05-06T06:47:10.156Z,82.0880
2023-05-06T06:48:12.766Z,81.8688
2023-05-06T06:49:15.393Z,81.7843
2023-05-06T06:50:18.042Z,82.2854
2023-05-06T06:51:20.673Z,82.9199
2023-05-06T06:53:25.128Z,82.1851
2023-05-06T06:53:25.128Z,82.7459
2023-05-06T06:54:27.750Z,82.1600
2023-05-06T06:55:30.342Z,81.3805
2023-05-06T06:56:32.977Z,82.8216
2023-05-06T06:57:35.568Z,83.4195
2023-05-06T06:58:38.378Z,82.8760
2023-05-06T06:59:41.023Z,81.6469
2023-05-06T07:00:43.626Z,81.5705
2023-05-06T07:01:46.279Z,81.9756
2023-05-06T07:02:48.935Z,82.6565
2023-05-06T07:03:51.533Z,82.7747
2023-05-06T07:04:54.211Z,82.6379
2023-05-06T07:06:57.096Z,81.1157
2023-05-06T07:06:57.096Z,82.2879
2023-05-06T07:07:59.685Z,79.7182
2023-05-06T07:09:02.307Z,78.6510
2023-05-06T07:10:04.921Z,77.4856
2023-05-06T07:11:07.522Z,77.5383
2023-05-06T07:12:10.660Z,77.2835
2023-05-06T07:13:13.287Z,78.8087
2023-05-06T07:14:23.467Z,80.9301
2023-05-06T07:15:18.745Z,81.5091
2023-05-06T07:16:21.405Z,81.6167
2023-05-06T07:17:24.105Z,81.2888
2023-05-06T07:18:27.615Z,80.9135
2023-05-06T07:19:30.238Z,78.8269
2023-05-06T07:20:32.887Z,77.9178
2023-05-06T07:21:35.556Z,77.3327
2023-05-06T07:22:38.201Z,79.1005
2023-05-06T07:23:40.807Z,79.4492
2023-05-06T07:24:43.456Z,79.3096
2023-05-06T07:25:46.061Z,77.2100
2023-05-06T07:26:48.703Z,74.2492
2023-05-06T07:27:51.448Z,74.8982
2023-05-06T07:28:54.081Z,71.9058
2023-05-06T07:29:56.690Z,73.8703
2023-05-06T07:30:59.596Z,69.2729
2023-05-06T07:32:02.185Z,66.9338
2023-05-06T07:33:04.809Z,68.9609
2023-05-06T07:34:07.415Z,73.1665
2023-05-06T07:35:10.279Z,69.3622
2023-05-06T07:36:13.113Z,70.4163
2023-05-06T07:37:15.758Z,75.1467
2023-05-06T07:38:18.323Z,77.1241
2023-05-06T07:39:20.964Z,75.7235
2023-05-06T07:40:23.667Z,75.4594
2023-05-06T07:41:26.259Z,74.7417
2023-05-06T07:42:28.855Z,76.7871
2023-05-06T07:43:31.460Z,75.8760
2023-05-06T07:44:34.286Z,72.3831
2023-05-06T07:45:36.869Z,72.1151
2023-05-06T07:46:39.505Z,70.9819
2023-05-06T07:47:42.196Z,71.6071
2023-05-06T07:48:44.796Z,70.1984
2023-05-06T07:49:47.659Z,71.5338
2023-05-06T07:50:50.286Z,71.5038
2023-05-06T07:51:53.186Z,70.0370
2023-05-06T07:52:55.859Z,67.2394
2023-05-06T07:53:58.554Z,66.6019
2023-05-06T07:55:01.134Z,67.2497
2023-05-06T07:56:03.755Z,64.2789
2023-05-06T07:57:06.626Z,63.1544
2023-05-06T07:58:09.202Z,63.8174
2023-05-06T07:59:12.099Z,64.5984
2023-05-06T08:00:14.749Z,65.2583
2023-05-06T08:01:17.400Z,63.6216
2023-05-06T08:02:17.903Z,61.4079
2023-05-06T08:03:20.643Z,60.9347
2023-05-06T08:04:23.387Z,64.1531
2023-05-06T08:05:26.032Z,66.4409
2023-05-06T08:06:28.618Z,68.4598
2023-05-06T08:07:31.240Z,63.7517
2023-05-06T08:08:33.860Z,61.8100
2023-05-06T08:09:36.494Z,60.4676
2023-05-06T08:10:39.111Z,59.3214
2023-05-06T08:11:41.738Z,61.3238
2023-05-06T08:12:44.397Z,60.0833
2023-05-06T08:13:46.975Z,61.7242
2023-05-06T08:14:50.125Z,57.7630
2023-05-06T08:15:52.753Z,56.5544
2023-05-06T08:16:55.387Z,58.9356
2023-05-06T08:18:02.185Z,58.6415
2023-05-06T08:18:59.225Z,56.8228
2023-05-06T08:20:01.935Z,54.2721
2023-05-06T08:21:04.573Z,55.6185
2023-05-06T08:22:07.178Z,57.1300
2023-05-06T08:23:09.795Z,57.9890
2023-05-06T08:24:12.524Z,57.5906
2023-05-06T08:25:15.033Z,59.1787
2023-05-06T08:26:17.655Z,61.2547
2023-05-06T08:27:20.228Z,61.3418
2023-05-06T08:28:24.675Z,61.6153
2023-05-06T08:29:24.283Z,55.6458
2023-05-06T08:30:26.942Z,54.5782
2023-05-06T08:31:29.543Z,53.1663
2023-05-06T08:32:32.713Z,54.1001
2023-05-06T08:33:35.330Z,53.4343
2023-05-06T08:34:37.914Z,60.6180
2023-05-06T08:35:41.037Z,61.7155
2023-05-06T08:36:43.619Z,55.9633
2023-05-06T08:37:46.238Z,54.1009
2023-05-06T08:38:48.888Z,57.0958
2023-05-06T08:39:51.508Z,55.4867
2023-05-06T08:40:54.076Z,60.1274
2023-05-06T08:41:56.678Z,63.6064
2023-05-06T08:42:59.277Z,63.1874
2023-05-06T08:44:01.910Z,65.3380
2023-05-06T08:45:04.543Z,65.7676
2023-05-06T08:46:07.217Z,61.1271
2023-05-06T08:47:10.024Z,59.6948
2023-05-06T08:48:12.827Z,63.6399
2023-05-06T08:49:15.451Z,62.7918
2023-05-06T08:50:18.059Z,64.1284
2023-05-06T08:51:20.679Z,63.8304
2023-05-06T08:52:23.338Z,61.8411
2023-05-06T08:53:25.920Z,61.5938
2023-05-06T08:54:28.642Z,64.2375
2023-05-06T08:55:31.266Z,66.4700
2023-05-06T08:56:33.892Z,62.5667
2023-05-06T08:57:36.508Z,61.2949
2023-05-06T08:58:39.087Z,61.0408
2023-05-06T08:59:41.977Z,56.8194
2023-05-06T09:00:44.601Z,54.1648
2023-05-06T09:01:47.071Z,56.0525
2023-05-06T09:03:50.234Z,57.2075
2023-05-06T09:03:50.234Z,54.9020
2023-05-06T09:04:53.578Z,52.3430
2023-05-06T09:05:56.169Z,54.7780
2023-05-06T09:06:58.649Z,55.1653
2023-05-06T09:08:01.310Z,53.7348
2023-05-06T09:09:03.937Z,51.3743
2023-05-06T09:10:06.538Z,52.0057
2023-05-06T09:11:09.157Z,51.3032
2023-05-06T09:12:11.784Z,51.9542
2023-05-06T09:13:14.392Z,50.9689
2023-05-06T09:14:17.075Z,49.8991
2023-05-06T09:15:19.873Z,51.8921
2023-05-06T09:16:22.721Z,50.5483
2023-05-06T09:17:25.462Z,47.4868
2023-05-06T09:18:28.068Z,49.3091
2023-05-06T09:19:30.734Z,55.1466
2023-05-06T09:20:33.348Z,54.6266
2023-05-06T09:21:35.955Z,52.9325
2023-05-06T09:22:38.616Z,55.2311
2023-05-06T09:23:41.276Z,57.8621
2023-05-06T09:24:43.906Z,55.0285
2023-05-06T09:25:46.525Z,53.6584
2023-05-06T09:26:49.132Z,54.6104
2023-05-06T09:27:51.756Z,57.2481
2023-05-06T09:28:54.330Z,52.5904
2023-05-06T09:29:54.832Z,52.8589
2023-05-06T09:30:57.459Z,56.6258
2023-05-06T09:32:00.061Z,57.2670
2023-05-06T09:33:02.706Z,58.9733
2023-05-06T09:34:05.320Z,59.7393
2023-05-06T09:35:07.975Z,58.4592
2023-05-06T09:36:10.706Z,59.1127
2023-05-06T09:37:13.332Z,59.3536
2023-05-06T09:38:15.912Z,59.3690
2023-05-06T09:39:18.578Z,55.1393
2023-05-06T09:40:21.250Z,53.5374
2023-05-06T09:41:23.608Z,53.4842
2023-05-06T09:42:26.231Z,56.4401
2023-05-06T09:43:28.893Z,58.5475
2023-05-06T09:44:31.461Z,58.7840
2023-05-06T09:45:34.071Z,55.9706
2023-05-06T09:46:36.722Z,55.5830
2023-05-06T09:47:39.410Z,57.5343
2023-05-06T09:48:42.032Z,56.2763
2023-05-06T09:49:44.650Z,55.2932
2023-05-06T09:50:47.320Z,55.0879
2023-05-06T09:51:49.919Z,54.7780
2023-05-06T09:52:52.562Z,56.9589
2023-05-06T09:53:55.211Z,55.6553
2023-05-06T09:54:57.876Z,54.1133
2023-05-06T09:56:00.530Z,55.4766
2023-05-06T09:57:03.285Z,57.0241
2023-05-06T09:58:05.957Z,57.4745
2023-05-06T09:59:08.620Z,55.1751
2023-05-06T10:00:11.289Z,52.0062
2023-05-06T10:01:19.250Z,49.6881
2023-05-06T10:02:15.284Z,49.7674
2023-05-06T10:03:18.155Z,50.5656
2023-05-06T10:04:21.379Z,49.6982
2023-05-06T10:05:21.701Z,48.5095
2023-05-06T10:06:24.289Z,48.0325
2023-05-06T10:07:27.175Z,50.1025
2023-05-06T10:08:29.812Z,47.5410
2023-05-06T10:09:32.715Z,50.1862
2023-05-06T10:10:35.421Z,48.9970
2023-05-06T10:11:38.081Z,50.4090
2023-05-06T10:12:38.787Z,51.3830
2023-05-06T10:13:41.428Z,52.0314
2023-05-06T10:14:44.203Z,52.2316
2023-05-06T10:15:46.927Z,55.4857
2023-05-06T10:16:49.583Z,54.7218
2023-05-06T10:17:52.252Z,55.5015
2023-05-06T10:18:54.860Z,53.3262
2023-05-06T10:19:57.648Z,52.9966
2023-05-06T10:21:00.252Z,53.1247
2023-05-06T10:22:05.537Z,48.8960
2023-05-06T10:23:04.606Z,47.9648
2023-05-06T10:24:07.295Z,45.9869
2023-05-06T10:25:10.165Z,46.6579
2023-05-06T10:26:12.946Z,46.5583
2023-05-06T10:27:15.574Z,49.1242
2023-05-06T10:28:24.666Z,52.5548
2023-05-06T10:29:19.483Z,50.8900
2023-05-06T10:30:22.334Z,50.6635
2023-05-06T10:31:25.041Z,48.9859
2023-05-06T10:32:27.663Z,49.3996
2023-05-06T10:33:30.347Z,48.9557
2023-05-06T10:34:33.048Z,50.1216
2023-05-06T10:35:35.752Z,48.8549
2023-05-06T10:36:38.393Z,50.6367
2023-05-06T10:37:41.052Z,46.9239
2023-05-06T10:38:43.715Z,48.0376
2023-05-06T10:39:46.495Z,47.6718
2023-05-06T10:40:49.154Z,48.7759
2023-05-06T10:42:52.654Z,47.2948
2023-05-06T10:42:52.654Z,44.7486
2023-05-06T10:43:55.263Z,44.7531
2023-05-06T10:44:57.896Z,44.9279
2023-05-06T10:46:00.803Z,46.6803
2023-05-06T10:47:03.458Z,48.4082
2023-05-06T10:48:06.103Z,48.2579
2023-05-06T10:49:08.758Z,47.7608
2023-05-06T10:50:11.381Z,48.6845
2023-05-06T10:51:14.028Z,47.6742
2023-05-06T10:52:16.668Z,45.8313
2023-05-06T10:53:19.300Z,48.3148
2023-05-06T10:54:21.955Z,47.3741
2023-05-06T10:55:24.654Z,45.5718
2023-05-06T10:56:27.341Z,47.7624
2023-05-06T10:57:29.988Z,48.8269
2023-05-06T10:58:32.617Z,47.5778
2023-05-06T10:59:35.328Z,46.3813
2023-05-06T11:00:37.968Z,46.4186
2023-05-06T11:01:40.733Z,47.6529
2023-05-06T11:02:44.966Z,50.4534
2023-05-06T11:03:45.851Z,49.9519
2023-05-06T11:04:46.392Z,49.7753
2023-05-06T11:05:49.054Z,50.3552
2023-05-06T11:06:51.729Z,46.8649
2023-05-06T11:07:54.353Z,47.3041
2023-05-06T11:08:57.093Z,47.9958
2023-05-06T11:09:59.778Z,45.1956
2023-05-06T11:11:02.470Z,45.3784
2023-05-06T11:12:05.113Z,47.0722
2023-05-06T11:13:07.849Z,48.4237
2023-05-06T11:14:10.502Z,49.4584
2023-05-06T11:15:13.157Z,47.9263
2023-05-06T11:16:15.877Z,47.3078
2023-05-06T11:17:18.897Z,46.5876
2023-05-06T11:18:21.562Z,48.2132
2023-05-06T11:19:24.216Z,48.2527
2023-05-06T11:20:26.919Z,48.5534
2023-05-06T11:21:29.566Z,49.2348
2023-05-06T11:22:32.678Z,47.4958
2023-05-06T11:23:35.352Z,48.0142
2023-05-06T11:24:38.013Z,49.6270
2023-05-06T11:25:40.605Z,47.4733
2023-05-06T11:26:43.927Z,51.1411
2023-05-06T11:27:46.982Z,51.0058
2023-05-06T11:28:46.887Z,50.3719
2023-05-06T11:29:49.592Z,48.4684
2023-05-06T11:30:52.274Z,51.4918
2023-05-06T11:31:54.866Z,49.5431
2023-05-06T11:32:57.622Z,49.3947
2023-05-06T11:34:00.261Z,47.8952
2023-05-06T11:35:02.986Z,47.3489
2023-05-06T11:36:13.148Z,48.3514
2023-05-06T11:37:15.832Z,50.4584
2023-05-06T11:38:18.499Z,46.8082
2023-05-06T11:39:21.129Z,46.6192
2023-05-06T11:40:23.814Z,46.8335
2023-05-06T11:41:26.544Z,47.0854
2023-05-06T11:42:29.405Z,47.6628
2023-05-06T11:43:32.047Z,46.2051
2023-05-06T11:44:34.703Z,44.0251
2023-05-06T11:45:37.576Z,43.2617
2023-05-06T11:46:40.288Z,44.4552
2023-05-06T11:47:43.538Z,45.9554
2023-05-06T11:48:46.207Z,45.9104
2023-05-06T11:49:48.915Z,45.9946
2023-05-06T11:50:51.553Z,45.0638
2023-05-06T11:51:54.221Z,47.0335
2023-05-06T11:52:56.872Z,45.9785
2023-05-06T11:53:59.679Z,47.4935
2023-05-06T11:55:02.592Z,45.2934
2023-05-06T11:56:05.242Z,44.8590
2023-05-06T11:57:08.464Z,46.5044
2023-05-06T11:58:11.117Z,47.3974
2023-05-06T11:59:13.770Z,45.7741
2023-05-06T12:00:16.442Z,46.7675
2023-05-06T12:01:19.083Z,46.5983
2023-05-06T12:02:21.887Z,46.6195
2023-05-06T12:03:24.745Z,49.8589
2023-05-06T12:04:27.586Z,49.5277
2023-05-06T12:05:30.588Z,49.6011
2023-05-06T12:06:33.275Z,49.2347
2023-05-06T12:07:36.074Z,48.1458
2023-05-06T12:08:38.930Z,46.3428
2023-05-06T12:09:41.582Z,43.8988
2023-05-06T12:10:44.238Z,41.2236
2023-05-06T12:11:46.881Z,39.4202
2023-05-06T12:12:49.606Z,41.7391
2023-05-06T12:13:52.207Z,45.0296
2023-05-06T12:14:54.893Z,43.7866
2023-05-06T12:15:57.599Z,43.1771
2023-05-06T12:17:00.253Z,40.7500
2023-05-06T12:18:03.166Z,43.9156
2023-05-06T12:19:05.800Z,40.0267
2023-05-06T12:20:08.564Z,41.6635
2023-05-06T12:21:11.246Z,42.5054
2023-05-06T12:22:13.935Z,41.0025
2023-05-06T12:23:16.641Z,39.6892
2023-05-06T12:24:19.383Z,39.3977
2023-05-06T12:25:22.035Z,42.1905
2023-05-06T12:26:24.818Z,39.1461
2023-05-06T12:27:27.424Z,38.3373
2023-05-06T12:28:30.104Z,39.9732
2023-05-06T12:29:32.725Z,38.8067
2023-05-06T12:30:35.846Z,38.9783
2023-05-06T12:31:38.493Z,39.9894
2023-05-06T12:32:41.183Z,41.0351
2023-05-06T12:33:43.865Z,40.5838
2023-05-06T12:34:46.498Z,40.7072
2023-05-06T12:35:49.186Z,41.2091
2023-05-06T12:36:51.848Z,39.6995
2023-05-06T12:37:54.499Z,39.1329
2023-05-06T12:38:57.143Z,43.2645